sensor_id;sensor_type;location;lat;lon;timestamp;temperature;humidity
56436;DHT22;42335;44.872;20.658;2023-02-23T00:01:20;231.00;2252.80
56436;DHT22;42335;44.872;20.658;2023-02-23T00:03:50;231.00;2252.80
56436;DHT22;42335;44.872;20.658;2023-02-23T00:06:17;231.00;2252.80
56436;DHT22;42335;44.872;20.658;2023-02-23T00:08:44;231.00;2252.80
56436;DHT22;42335;44.872;20.658;2023-02-23T00:11:13;230.90;2252.80
56436;DHT22;42335;44.872;20.658;2023-02-23T00:13:40;230.90;2252.80
56436;DHT22;42335;44.872;20.658;2023-02-23T00:16:11;230.90;2252.80
56436;DHT22;42335;44.872;20.658;2023-02-23T00:18:41;230.90;2252.80
56436;DHT22;42335;44.872;20.658;2023-02-23T00:21:11;230.90;2252.80
56436;DHT22;42335;44.872;20.658;2023-02-23T00:23:41;230.90;2252.80
56436;DHT22;42335;44.872;20.658;2023-02-23T00:26:06;230.80;2252.80
56436;DHT22;42335;44.872;20.658;2023-02-23T00:28:32;230.70;2252.80
56436;DHT22;42335;44.872;20.658;2023-02-23T00:31:01;230.70;2252.80
56436;DHT22;42335;44.872;20.658;2023-02-23T00:33:28;230.70;2252.80
56436;DHT22;42335;44.872;20.658;2023-02-23T00:35:55;230.70;2252.80
56436;DHT22;42335;44.872;20.658;2023-02-23T00:38:20;230.60;2252.80
56436;DHT22;42335;44.872;20.658;2023-02-23T00:40:46;230.40;2252.80
56436;DHT22;42335;44.872;20.658;2023-02-23T00:43:11;230.40;2252.80
56436;DHT22;42335;44.872;20.658;2023-02-23T00:45:39;230.40;2252.80
56436;DHT22;42335;44.872;20.658;2023-02-23T00:48:05;230.40;2252.80
56436;DHT22;42335;44.872;20.658;2023-02-23T00:50:35;230.40;2252.80
56436;DHT22;42335;44.872;20.658;2023-02-23T00:53:03;230.40;2252.80
56436;DHT22;42335;44.872;20.658;2023-02-23T00:55:29;205.70;2252.80
56436;DHT22;42335;44.872;20.658;2023-02-23T00:57:55;205.70;2252.80
56436;DHT22;42335;44.872;20.658;2023-02-23T01:00:23;205.60;2252.80
56436;DHT22;42335;44.872;20.658;2023-02-23T01:02:52;205.50;2252.80
56436;DHT22;42335;44.872;20.658;2023-02-23T01:05:18;205.50;2252.80
56436;DHT22;42335;44.872;20.658;2023-02-23T01:07:44;205.60;2252.80
56436;DHT22;42335;44.872;20.658;2023-02-23T01:10:13;205.60;2252.80
56436;DHT22;42335;44.872;20.658;2023-02-23T01:12:49;205.50;2252.80
56436;DHT22;42335;44.872;20.658;2023-02-23T01:15:17;205.50;2252.80
56436;DHT22;42335;44.872;20.658;2023-02-23T01:17:44;205.50;2252.80
56436;DHT22;42335;44.872;20.658;2023-02-23T01:20:15;205.50;2252.80
56436;DHT22;42335;44.872;20.658;2023-02-23T01:22:45;205.40;2252.80
56436;DHT22;42335;44.872;20.658;2023-02-23T01:25:11;205.30;2252.80
56436;DHT22;42335;44.872;20.658;2023-02-23T01:27:39;205.30;2252.80
56436;DHT22;42335;44.872;20.658;2023-02-23T01:30:05;205.30;2252.80
56436;DHT22;42335;44.872;20.658;2023-02-23T01:32:36;205.30;2252.80
56436;DHT22;42335;44.872;20.658;2023-02-23T01:35:07;205.40;2252.80
56436;DHT22;42335;44.872;20.658;2023-02-23T01:37:34;205.40;2252.80
56436;DHT22;42335;44.872;20.658;2023-02-23T01:40:01;205.40;2252.80
56436;DHT22;42335;44.872;20.658;2023-02-23T01:42:37;205.20;2252.80
56436;DHT22;42335;44.872;20.658;2023-02-23T01:47:53;205.20;2252.80
56436;DHT22;42335;44.872;20.658;2023-02-23T01:50:20;205.10;2252.80
56436;DHT22;42335;44.872;20.658;2023-02-23T01:52:49;205.10;2252.80
56436;DHT22;42335;44.872;20.658;2023-02-23T01:55:17;205.00;2252.80
56436;DHT22;42335;44.872;20.658;2023-02-23T01:57:51;205.00;2252.80
56436;DHT22;42335;44.872;20.658;2023-02-23T02:00:19;205.00;2252.80
56436;DHT22;42335;44.872;20.658;2023-02-23T02:02:45;205.00;2252.80
56436;DHT22;42335;44.872;20.658;2023-02-23T02:05:14;204.90;2252.80
56436;DHT22;42335;44.872;20.658;2023-02-23T02:07:46;204.90;2252.80
56436;DHT22;42335;44.872;20.658;2023-02-23T02:10:14;204.90;2252.80
56436;DHT22;42335;44.872;20.658;2023-02-23T02:12:50;205.00;2252.80
56436;DHT22;42335;44.872;20.658;2023-02-23T02:15:17;204.90;2252.80
56436;DHT22;42335;44.872;20.658;2023-02-23T02:24:01;204.80;2252.80
56436;DHT22;42335;44.872;20.658;2023-02-23T02:40:57;179.80;2252.80
56436;DHT22;42335;44.872;20.658;2023-02-23T02:46:37;179.80;2252.80
56436;DHT22;42335;44.872;20.658;2023-02-23T02:51:42;179.90;2252.80
56436;DHT22;42335;44.872;20.658;2023-02-23T02:54:32;179.90;2252.80
56436;DHT22;42335;44.872;20.658;2023-02-23T02:57:01;180.00;2252.80
56436;DHT22;42335;44.872;20.658;2023-02-23T02:59:28;180.00;2252.80
56436;DHT22;42335;44.872;20.658;2023-02-23T03:02:18;180.00;2252.80
56436;DHT22;42335;44.872;20.658;2023-02-23T03:05:14;180.00;2252.80
56436;DHT22;42335;44.872;20.658;2023-02-23T03:11:12;179.90;2252.80
56436;DHT22;42335;44.872;20.658;2023-02-23T03:18:15;179.70;2252.80
56436;DHT22;42335;44.872;20.658;2023-02-23T03:20:46;179.50;2252.80
56436;DHT22;42335;44.872;20.658;2023-02-23T03:24:03;179.60;2252.80
56436;DHT22;42335;44.872;20.658;2023-02-23T03:27:19;179.60;2252.80
56436;DHT22;42335;44.872;20.658;2023-02-23T03:33:00;179.60;2252.80
56436;DHT22;42335;44.872;20.658;2023-02-23T03:35:58;179.50;2252.80
56436;DHT22;42335;44.872;20.658;2023-02-23T03:39:14;179.40;2252.80
56436;DHT22;42335;44.872;20.658;2023-02-23T03:42:03;179.50;2252.80
56436;DHT22;42335;44.872;20.658;2023-02-23T03:44:49;179.50;2252.80
56436;DHT22;42335;44.872;20.658;2023-02-23T03:47:39;179.50;2252.80
56436;DHT22;42335;44.872;20.658;2023-02-23T03:50:53;179.50;2252.80
56436;DHT22;42335;44.872;20.658;2023-02-23T03:53:50;179.40;2252.80
56436;DHT22;42335;44.872;20.658;2023-02-23T03:56:39;179.20;2252.80
56436;DHT22;42335;44.872;20.658;2023-02-23T03:59:28;179.20;2252.80
56436;DHT22;42335;44.872;20.658;2023-02-23T04:02:14;179.30;2252.80
56436;DHT22;42335;44.872;20.658;2023-02-23T04:05:04;179.30;2252.80
56436;DHT22;42335;44.872;20.658;2023-02-23T04:07:50;179.20;2252.80
56436;DHT22;42335;44.872;20.658;2023-02-23T04:10:41;154.50;2252.80
56436;DHT22;42335;44.872;20.658;2023-02-23T04:13:30;154.40;2252.80
56436;DHT22;42335;44.872;20.658;2023-02-23T04:16:04;154.50;2252.80
56436;DHT22;42335;44.872;20.658;2023-02-23T04:18:34;154.50;2252.80
56436;DHT22;42335;44.872;20.658;2023-02-23T04:21:02;179.20;2252.80
56436;DHT22;42335;44.872;20.658;2023-02-23T04:23:28;179.20;2252.80
56436;DHT22;42335;44.872;20.658;2023-02-23T04:25:55;154.50;2252.80
56436;DHT22;42335;44.872;20.658;2023-02-23T04:28:22;154.50;2252.80
56436;DHT22;42335;44.872;20.658;2023-02-23T04:30:48;154.40;2252.80
56436;DHT22;42335;44.872;20.658;2023-02-23T04:33:14;154.40;2252.80
56436;DHT22;42335;44.872;20.658;2023-02-23T04:35:40;154.40;2252.80
56436;DHT22;42335;44.872;20.658;2023-02-23T04:38:06;154.40;2252.80
56436;DHT22;42335;44.872;20.658;2023-02-23T04:40:32;154.50;2252.80
56436;DHT22;42335;44.872;20.658;2023-02-23T04:42:58;154.50;2252.80
56436;DHT22;42335;44.872;20.658;2023-02-23T04:45:24;154.50;2252.80
56436;DHT22;42335;44.872;20.658;2023-02-23T04:47:50;154.50;2252.80
56436;DHT22;42335;44.872;20.658;2023-02-23T04:50:17;154.20;2252.80
56436;DHT22;42335;44.872;20.658;2023-02-23T04:52:42;154.30;2252.80
56436;DHT22;42335;44.872;20.658;2023-02-23T04:55:18;154.40;2252.80
56436;DHT22;42335;44.872;20.658;2023-02-23T04:57:44;154.40;2252.80
56436;DHT22;42335;44.872;20.658;2023-02-23T05:00:10;154.40;2252.80
56436;DHT22;42335;44.872;20.658;2023-02-23T05:02:37;154.30;2252.80
56436;DHT22;42335;44.872;20.658;2023-02-23T05:05:03;154.30;2252.80
56436;DHT22;42335;44.872;20.658;2023-02-23T05:07:29;154.30;2252.80
56436;DHT22;42335;44.872;20.658;2023-02-23T05:09:54;154.20;2252.80
56436;DHT22;42335;44.872;20.658;2023-02-23T05:12:20;154.40;2252.80
56436;DHT22;42335;44.872;20.658;2023-02-23T05:14:45;154.20;2252.80
56436;DHT22;42335;44.872;20.658;2023-02-23T05:17:11;154.10;2252.80
56436;DHT22;42335;44.872;20.658;2023-02-23T05:19:37;154.20;2252.80
56436;DHT22;42335;44.872;20.658;2023-02-23T05:22:03;154.20;2252.80
56436;DHT22;42335;44.872;20.658;2023-02-23T05:24:28;154.10;2252.80
56436;DHT22;42335;44.872;20.658;2023-02-23T05:26:54;154.10;2252.80
56436;DHT22;42335;44.872;20.658;2023-02-23T05:29:20;153.90;2252.80
56436;DHT22;42335;44.872;20.658;2023-02-23T05:31:46;153.80;2252.80
56436;DHT22;42335;44.872;20.658;2023-02-23T05:34:13;153.80;2252.80
56436;DHT22;42335;44.872;20.658;2023-02-23T05:36:38;153.80;2252.80
56436;DHT22;42335;44.872;20.658;2023-02-23T05:39:04;153.80;2252.80
56436;DHT22;42335;44.872;20.658;2023-02-23T05:41:30;153.80;2252.80
56436;DHT22;42335;44.872;20.658;2023-02-23T05:43:56;153.70;2252.80
56436;DHT22;42335;44.872;20.658;2023-02-23T05:46:24;153.80;2252.80
56436;DHT22;42335;44.872;20.658;2023-02-23T05:48:50;153.70;2252.80
56436;DHT22;42335;44.872;20.658;2023-02-23T05:51:19;153.80;2252.80
56436;DHT22;42335;44.872;20.658;2023-02-23T05:53:45;153.80;2252.80
56436;DHT22;42335;44.872;20.658;2023-02-23T05:56:15;153.80;2252.80
56436;DHT22;42335;44.872;20.658;2023-02-23T05:58:51;153.90;2252.80
56436;DHT22;42335;44.872;20.658;2023-02-23T06:01:18;153.80;2252.80
56436;DHT22;42335;44.872;20.658;2023-02-23T06:03:47;153.90;2252.80
56436;DHT22;42335;44.872;20.658;2023-02-23T06:06:13;154.00;2252.80
56436;DHT22;42335;44.872;20.658;2023-02-23T06:08:40;154.00;2252.80
56436;DHT22;42335;44.872;20.658;2023-02-23T06:11:07;154.10;2252.80
56436;DHT22;42335;44.872;20.658;2023-02-23T06:13:33;154.20;2252.80
56436;DHT22;42335;44.872;20.658;2023-02-23T06:15:59;154.20;2252.80
56436;DHT22;42335;44.872;20.658;2023-02-23T06:18:26;154.30;2252.80
56436;DHT22;42335;44.872;20.658;2023-02-23T06:20:51;154.30;2252.80
56436;DHT22;42335;44.872;20.658;2023-02-23T06:23:18;154.40;2252.80
56436;DHT22;42335;44.872;20.658;2023-02-23T06:25:47;154.40;2252.80
56436;DHT22;42335;44.872;20.658;2023-02-23T06:28:13;154.50;2252.80
56436;DHT22;42335;44.872;20.658;2023-02-23T06:30:39;154.50;2252.80
56436;DHT22;42335;44.872;20.658;2023-02-23T06:33:06;179.40;2252.80
56436;DHT22;42335;44.872;20.658;2023-02-23T06:35:33;179.50;2252.80
56436;DHT22;42335;44.872;20.658;2023-02-23T06:38:00;179.60;2252.80
56436;DHT22;42335;44.872;20.658;2023-02-23T06:40:28;179.70;2252.80
56436;DHT22;42335;44.872;20.658;2023-02-23T06:42:54;179.80;2252.80
56436;DHT22;42335;44.872;20.658;2023-02-23T06:45:20;180.00;2252.80
56436;DHT22;42335;44.872;20.658;2023-02-23T06:47:46;204.80;2252.80
56436;DHT22;42335;44.872;20.658;2023-02-23T06:50:12;205.10;2252.80
56436;DHT22;42335;44.872;20.658;2023-02-23T06:52:40;205.40;2252.80
56436;DHT22;42335;44.872;20.658;2023-02-23T06:55:07;230.40;2252.80
56436;DHT22;42335;44.872;20.658;2023-02-23T06:57:33;230.60;2252.80
56436;DHT22;42335;44.872;20.658;2023-02-23T06:59:58;231.00;2252.80
56436;DHT22;42335;44.872;20.658;2023-02-23T07:02:26;256.10;2252.80
56436;DHT22;42335;44.872;20.658;2023-02-23T07:04:52;256.50;2252.80
56436;DHT22;42335;44.872;20.658;2023-02-23T07:07:18;256.80;2252.80
56436;DHT22;42335;44.872;20.658;2023-02-23T07:09:44;282.00;2278.40
56436;DHT22;42335;44.872;20.658;2023-02-23T07:12:10;282.20;2278.40
56436;DHT22;42335;44.872;20.658;2023-02-23T07:14:36;307.30;2304.00
56436;DHT22;42335;44.872;20.658;2023-02-23T07:17:04;307.90;2304.00
56436;DHT22;42335;44.872;20.658;2023-02-23T07:19:31;333.40;2278.40
56436;DHT22;42335;44.872;20.658;2023-02-23T07:21:57;359.30;2022.40
56436;DHT22;42335;44.872;20.658;2023-02-23T07:24:22;409.70;1868.80
56436;DHT22;42335;44.872;20.658;2023-02-23T07:26:48;410.30;1792.00
56436;DHT22;42335;44.872;20.658;2023-02-23T07:29:14;460.80;1689.60
56436;DHT22;42335;44.872;20.658;2023-02-23T07:36:34;512.80;1382.40
56436;DHT22;42335;44.872;20.658;2023-02-23T07:39:00;512.80;1356.80
56436;DHT22;42335;44.872;20.658;2023-02-23T07:41:26;512.70;1356.80
56436;DHT22;42335;44.872;20.658;2023-02-23T07:43:52;538.20;1331.20
56436;DHT22;42335;44.872;20.658;2023-02-23T07:48:45;588.80;1280.00
56436;DHT22;42335;44.872;20.658;2023-02-23T07:51:13;588.80;1254.40
56436;DHT22;42335;44.872;20.658;2023-02-23T07:53:41;589.10;1228.80
56436;DHT22;42335;44.872;20.658;2023-02-23T07:56:10;589.40;1203.20
56436;DHT22;42335;44.872;20.658;2023-02-23T07:58:40;589.40;1177.60
56436;DHT22;42335;44.872;20.658;2023-02-23T08:01:06;563.60;1254.40
56436;DHT22;42335;44.872;20.658;2023-02-23T08:03:32;589.00;1203.20
56436;DHT22;42335;44.872;20.658;2023-02-23T08:05:58;614.80;1152.00
56436;DHT22;42335;44.872;20.658;2023-02-23T08:10:50;640.70;1049.60
56436;DHT22;42335;44.872;20.658;2023-02-23T08:13:16;691.30;998.40
56436;DHT22;42335;44.872;20.658;2023-02-23T08:15:45;692.10;947.20
56436;DHT22;42335;44.872;20.658;2023-02-23T08:18:12;742.40;921.60
56436;DHT22;42335;44.872;20.658;2023-02-23T08:20:38;743.10;870.40
56436;DHT22;42335;44.872;20.658;2023-02-23T08:23:03;768.70;819.20
56436;DHT22;42335;44.872;20.658;2023-02-23T08:25:29;793.70;844.80
56436;DHT22;42335;44.872;20.658;2023-02-23T08:27:55;794.00;844.80
56436;DHT22;42335;44.872;20.658;2023-02-23T08:35:14;844.90;793.60
56436;DHT22;42335;44.872;20.658;2023-02-23T08:37:39;870.50;742.40
56436;DHT22;42335;44.872;20.658;2023-02-23T08:40:07;845.20;768.00
56436;DHT22;42335;44.872;20.658;2023-02-23T08:42:33;845.70;742.40
56436;DHT22;42335;44.872;20.658;2023-02-23T08:44:59;870.90;716.80
56436;DHT22;42335;44.872;20.658;2023-02-23T08:47:26;870.70;716.80
56436;DHT22;42335;44.872;20.658;2023-02-23T08:49:53;870.70;716.80
56436;DHT22;42335;44.872;20.658;2023-02-23T08:52:20;871.20;691.20
56436;DHT22;42335;44.872;20.658;2023-02-23T08:54:46;896.80;640.00
56436;DHT22;42335;44.872;20.658;2023-02-23T08:57:12;921.80;640.00
56436;DHT22;42335;44.872;20.658;2023-02-23T08:59:38;922.20;614.40
56436;DHT22;42335;44.872;20.658;2023-02-23T09:02:05;922.50;614.40
56436;DHT22;42335;44.872;20.658;2023-02-23T09:04:33;947.50;588.80
56436;DHT22;42335;44.872;20.658;2023-02-23T09:07:02;948.10;563.20
56436;DHT22;42335;44.872;20.658;2023-02-23T09:09:28;922.40;640.00
56436;DHT22;42335;44.872;20.658;2023-02-23T09:11:54;922.40;640.00
56436;DHT22;42335;44.872;20.658;2023-02-23T09:16:46;871.30;665.60
56436;DHT22;42335;44.872;20.658;2023-02-23T09:19:12;922.40;614.40
56436;DHT22;42335;44.872;20.658;2023-02-23T09:21:38;947.40;563.20
56436;DHT22;42335;44.872;20.658;2023-02-23T09:24:04;947.60;563.20
56436;DHT22;42335;44.872;20.658;2023-02-23T09:26:31;948.10;537.60
56436;DHT22;42335;44.872;20.658;2023-02-23T09:28:59;948.10;563.20
56436;DHT22;42335;44.872;20.658;2023-02-23T09:31:25;972.80;588.80
56436;DHT22;42335;44.872;20.658;2023-02-23T09:33:51;947.40;588.80
56436;DHT22;42335;44.872;20.658;2023-02-23T09:36:20;948.10;563.20
56436;DHT22;42335;44.872;20.658;2023-02-23T09:49:44;948.10;537.60
56436;DHT22;42335;44.872;20.658;2023-02-23T09:52:40;972.90;588.80
56436;DHT22;42335;44.872;20.658;2023-02-23T09:55:10;973.50;563.20
56436;DHT22;42335;44.872;20.658;2023-02-23T09:57:40;973.10;588.80
56436;DHT22;42335;44.872;20.658;2023-02-23T10:08:01;998.90;537.60
56436;DHT22;42335;44.872;20.658;2023-02-23T10:10:43;973.70;537.60
56436;DHT22;42335;44.872;20.658;2023-02-23T10:23:52;947.30;588.80
56436;DHT22;42335;44.872;20.658;2023-02-23T10:28:49;921.80;614.40
56436;DHT22;42335;44.872;20.658;2023-02-23T10:31:32;896.00;640.00
56436;DHT22;42335;44.872;20.658;2023-02-23T10:34:02;871.30;640.00
56436;DHT22;42335;44.872;20.658;2023-02-23T10:36:36;871.10;640.00
56436;DHT22;42335;44.872;20.658;2023-02-23T10:39:05;870.70;665.60
56436;DHT22;42335;44.872;20.658;2023-02-23T10:41:33;871.10;640.00
56436;DHT22;42335;44.872;20.658;2023-02-23T10:44:00;871.10;640.00
56436;DHT22;42335;44.872;20.658;2023-02-23T10:46:36;870.60;665.60
56436;DHT22;42335;44.872;20.658;2023-02-23T10:49:03;870.70;665.60
56436;DHT22;42335;44.872;20.658;2023-02-23T10:51:33;845.20;691.20
56436;DHT22;42335;44.872;20.658;2023-02-23T11:39:59;794.20;742.40
56436;DHT22;42335;44.872;20.658;2023-02-23T11:42:32;794.40;742.40
56436;DHT22;42335;44.872;20.658;2023-02-23T11:45:15;794.20;742.40
56436;DHT22;42335;44.872;20.658;2023-02-23T11:47:47;819.30;716.80
56436;DHT22;42335;44.872;20.658;2023-02-23T11:50:34;794.10;742.40
56436;DHT22;42335;44.872;20.658;2023-02-23T11:55:30;743.10;793.60
56436;DHT22;42335;44.872;20.658;2023-02-23T11:58:08;768.40;768.00
56436;DHT22;42335;44.872;20.658;2023-02-23T12:00:34;819.20;742.40
56436;DHT22;42335;44.872;20.658;2023-02-23T12:03:00;794.40;742.40
56436;DHT22;42335;44.872;20.658;2023-02-23T12:05:31;794.30;742.40
56436;DHT22;42335;44.872;20.658;2023-02-23T12:10:40;717.00;819.20
56436;DHT22;42335;44.872;20.658;2023-02-23T12:13:34;666.40;870.40
56436;DHT22;42335;44.872;20.658;2023-02-23T12:26:55;640.30;921.60
56436;DHT22;42335;44.872;20.658;2023-02-23T12:32:25;615.30;947.20
56436;DHT22;42335;44.872;20.658;2023-02-23T12:34:57;615.20;972.80
56436;DHT22;42335;44.872;20.658;2023-02-23T12:40:10;615.20;972.80
56436;DHT22;42335;44.872;20.658;2023-02-23T12:42:43;615.10;998.40
56436;DHT22;42335;44.872;20.658;2023-02-23T12:45:22;615.20;972.80
56436;DHT22;42335;44.872;20.658;2023-02-23T12:48:16;615.30;972.80
56436;DHT22;42335;44.872;20.658;2023-02-23T12:50:53;615.20;972.80
56436;DHT22;42335;44.872;20.658;2023-02-23T13:01:52;614.70;998.40
56436;DHT22;42335;44.872;20.658;2023-02-23T13:10:15;614.80;998.40
56436;DHT22;42335;44.872;20.658;2023-02-23T13:16:14;589.20;1075.20
56436;DHT22;42335;44.872;20.658;2023-02-23T13:18:47;589.10;1049.60
56436;DHT22;42335;44.872;20.658;2023-02-23T13:24:05;563.90;1100.80
56436;DHT22;42335;44.872;20.658;2023-02-23T13:27:00;563.60;1100.80
56436;DHT22;42335;44.872;20.658;2023-02-23T13:29:43;563.90;1100.80
56436;DHT22;42335;44.872;20.658;2023-02-23T13:32:12;563.80;1100.80
56436;DHT22;42335;44.872;20.658;2023-02-23T13:34:43;563.80;1100.80
56436;DHT22;42335;44.872;20.658;2023-02-23T13:37:12;563.60;1126.40
56436;DHT22;42335;44.872;20.658;2023-02-23T13:39:45;563.80;1126.40
56436;DHT22;42335;44.872;20.658;2023-02-23T13:45:23;588.90;1100.80
56436;DHT22;42335;44.872;20.658;2023-02-23T13:53:43;563.80;1126.40
56436;DHT22;42335;44.872;20.658;2023-02-23T13:56:21;563.80;1100.80
56436;DHT22;42335;44.872;20.658;2023-02-23T13:58:51;563.80;1100.80
56436;DHT22;42335;44.872;20.658;2023-02-23T14:01:20;538.50;1126.40
56436;DHT22;42335;44.872;20.658;2023-02-23T14:04:03;563.20;1152.00
56436;DHT22;42335;44.872;20.658;2023-02-23T14:06:39;538.50;1126.40
56436;DHT22;42335;44.872;20.658;2023-02-23T14:09:12;563.20;1152.00
56436;DHT22;42335;44.872;20.658;2023-02-23T14:19:42;537.80;1152.00
56436;DHT22;42335;44.872;20.658;2023-02-23T14:27:21;538.00;1152.00
56436;DHT22;42335;44.872;20.658;2023-02-23T14:30:14;537.70;1177.60
56436;DHT22;42335;44.872;20.658;2023-02-23T14:32:43;537.70;1177.60
56436;DHT22;42335;44.872;20.658;2023-02-23T14:38:21;512.90;1152.00
56436;DHT22;42335;44.872;20.658;2023-02-23T14:40:50;512.80;1152.00
56436;DHT22;42335;44.872;20.658;2023-02-23T14:46:11;512.60;1177.60
56436;DHT22;42335;44.872;20.658;2023-02-23T14:48:39;512.30;1177.60
56436;DHT22;42335;44.872;20.658;2023-02-23T14:51:20;512.30;1177.60
56436;DHT22;42335;44.872;20.658;2023-02-23T14:53:47;512.60;1177.60
56436;DHT22;42335;44.872;20.658;2023-02-23T14:56:23;512.40;1177.60
56436;DHT22;42335;44.872;20.658;2023-02-23T15:06:57;487.10;1228.80
56436;DHT22;42335;44.872;20.658;2023-02-23T15:09:51;486.80;1228.80
56436;DHT22;42335;44.872;20.658;2023-02-23T15:12:22;486.80;1228.80
56436;DHT22;42335;44.872;20.658;2023-02-23T15:14:52;487.00;1228.80
56436;DHT22;42335;44.872;20.658;2023-02-23T15:17:21;486.80;1254.40
56436;DHT22;42335;44.872;20.658;2023-02-23T15:19:53;487.00;1254.40
56436;DHT22;42335;44.872;20.658;2023-02-23T15:37:33;461.70;1280.00
56436;DHT22;42335;44.872;20.658;2023-02-23T15:40:03;461.30;1331.20
56436;DHT22;42335;44.872;20.658;2023-02-23T15:42:38;460.90;1356.80
56436;DHT22;42335;44.872;20.658;2023-02-23T15:47:52;436.10;1356.80
56436;DHT22;42335;44.872;20.658;2023-02-23T15:50:22;435.60;1382.40
56436;DHT22;42335;44.872;20.658;2023-02-23T15:52:52;435.30;1408.00
56436;DHT22;42335;44.872;20.658;2023-02-23T15:55:36;435.30;1408.00
56436;DHT22;42335;44.872;20.658;2023-02-23T15:58:17;435.20;1433.60
56436;DHT22;42335;44.872;20.658;2023-02-23T16:00:49;435.30;1459.20
56436;DHT22;42335;44.872;20.658;2023-02-23T16:03:36;410.50;1459.20
56436;DHT22;42335;44.872;20.658;2023-02-23T16:06:23;410.20;1459.20
56436;DHT22;42335;44.872;20.658;2023-02-23T16:11:47;409.70;1484.80
56436;DHT22;42335;44.872;20.658;2023-02-23T16:14:15;384.90;1484.80
56436;DHT22;42335;44.872;20.658;2023-02-23T16:16:42;384.90;1484.80
56436;DHT22;42335;44.872;20.658;2023-02-23T16:19:13;384.70;1510.40
56436;DHT22;42335;44.872;20.658;2023-02-23T16:21:39;384.90;1510.40
56436;DHT22;42335;44.872;20.658;2023-02-23T16:24:15;384.90;1510.40
56436;DHT22;42335;44.872;20.658;2023-02-23T16:26:53;384.60;1536.00
56436;DHT22;42335;44.872;20.658;2023-02-23T16:29:30;384.40;1536.00
56436;DHT22;42335;44.872;20.658;2023-02-23T16:34:34;384.40;1536.00
56436;DHT22;42335;44.872;20.658;2023-02-23T16:37:17;359.30;1561.60
56436;DHT22;42335;44.872;20.658;2023-02-23T16:39:43;359.20;1587.20
56436;DHT22;42335;44.872;20.658;2023-02-23T16:42:32;359.30;1587.20
56436;DHT22;42335;44.872;20.658;2023-02-23T16:44:58;359.20;1612.80
56436;DHT22;42335;44.872;20.658;2023-02-23T16:47:42;359.00;1612.80
56436;DHT22;42335;44.872;20.658;2023-02-23T16:50:27;359.10;1638.40
56436;DHT22;42335;44.872;20.658;2023-02-23T16:52:53;358.80;1638.40
56436;DHT22;42335;44.872;20.658;2023-02-23T16:55:25;358.80;1638.40
56436;DHT22;42335;44.872;20.658;2023-02-23T16:57:53;358.60;1638.40
56436;DHT22;42335;44.872;20.658;2023-02-23T17:00:22;358.40;1664.00
56436;DHT22;42335;44.872;20.658;2023-02-23T17:02:49;333.70;1664.00
56436;DHT22;42335;44.872;20.658;2023-02-23T17:05:19;333.60;1689.60
56436;DHT22;42335;44.872;20.658;2023-02-23T17:07:47;333.50;1689.60
56436;DHT22;42335;44.872;20.658;2023-02-23T17:10:26;333.30;1715.20
56436;DHT22;42335;44.872;20.658;2023-02-23T17:12:55;333.40;1715.20
56436;DHT22;42335;44.872;20.658;2023-02-23T17:15:22;333.40;1740.80
56436;DHT22;42335;44.872;20.658;2023-02-23T17:17:48;333.30;1715.20
56436;DHT22;42335;44.872;20.658;2023-02-23T17:20:14;333.30;1740.80
56436;DHT22;42335;44.872;20.658;2023-02-23T17:22:49;333.00;1740.80
56436;DHT22;42335;44.872;20.658;2023-02-23T17:25:15;333.20;1740.80
56436;DHT22;42335;44.872;20.658;2023-02-23T17:27:41;333.10;1766.40
56436;DHT22;42335;44.872;20.658;2023-02-23T17:30:07;332.90;1740.80
56436;DHT22;42335;44.872;20.658;2023-02-23T17:32:34;332.90;1766.40
56436;DHT22;42335;44.872;20.658;2023-02-23T17:35:00;308.10;1740.80
56436;DHT22;42335;44.872;20.658;2023-02-23T17:37:26;307.90;1766.40
56436;DHT22;42335;44.872;20.658;2023-02-23T17:39:51;307.90;1766.40
56436;DHT22;42335;44.872;20.658;2023-02-23T17:42:18;307.80;1766.40
56436;DHT22;42335;44.872;20.658;2023-02-23T17:44:44;307.80;1792.00
56436;DHT22;42335;44.872;20.658;2023-02-23T17:47:09;307.80;1792.00
56436;DHT22;42335;44.872;20.658;2023-02-23T17:49:35;307.50;1817.60
56436;DHT22;42335;44.872;20.658;2023-02-23T17:52:01;307.50;1817.60
56436;DHT22;42335;44.872;20.658;2023-02-23T17:54:28;307.50;1817.60
56436;DHT22;42335;44.872;20.658;2023-02-23T17:56:54;307.50;1817.60
56436;DHT22;42335;44.872;20.658;2023-02-23T17:59:21;307.50;1843.20
56436;DHT22;42335;44.872;20.658;2023-02-23T18:01:47;307.50;1817.60
56436;DHT22;42335;44.872;20.658;2023-02-23T18:04:14;307.50;1843.20
56436;DHT22;42335;44.872;20.658;2023-02-23T18:06:40;307.50;1843.20
56436;DHT22;42335;44.872;20.658;2023-02-23T18:09:05;307.40;1843.20
56436;DHT22;42335;44.872;20.658;2023-02-23T18:11:32;307.40;1868.80
56436;DHT22;42335;44.872;20.658;2023-02-23T18:14:01;307.30;1868.80
56436;DHT22;42335;44.872;20.658;2023-02-23T18:16:27;307.20;1868.80
56436;DHT22;42335;44.872;20.658;2023-02-23T18:18:53;307.20;1894.40
56436;DHT22;42335;44.872;20.658;2023-02-23T18:21:21;307.20;1894.40
56436;DHT22;42335;44.872;20.658;2023-02-23T18:23:47;282.50;1894.40
56436;DHT22;42335;44.872;20.658;2023-02-23T18:26:19;282.50;1894.40
56436;DHT22;42335;44.872;20.658;2023-02-23T18:28:46;282.50;1894.40
56436;DHT22;42335;44.872;20.658;2023-02-23T18:31:18;282.40;1920.00
56436;DHT22;42335;44.872;20.658;2023-02-23T18:33:44;282.40;1920.00
56436;DHT22;42335;44.872;20.658;2023-02-23T18:36:32;282.40;1920.00
56436;DHT22;42335;44.872;20.658;2023-02-23T18:39:00;282.30;1945.60
56436;DHT22;42335;44.872;20.658;2023-02-23T18:41:27;282.40;1945.60
56436;DHT22;42335;44.872;20.658;2023-02-23T18:43:59;282.40;1945.60
56436;DHT22;42335;44.872;20.658;2023-02-23T18:46:26;282.30;1945.60
56436;DHT22;42335;44.872;20.658;2023-02-23T18:48:52;282.20;1971.20
56436;DHT22;42335;44.872;20.658;2023-02-23T18:51:19;282.20;1971.20
56436;DHT22;42335;44.872;20.658;2023-02-23T18:53:48;282.20;1971.20
56436;DHT22;42335;44.872;20.658;2023-02-23T18:56:17;282.10;2022.40